KPGD Airport Information


Runway Information
Runway 09 Length 4591 ft width 150 ft
Elevation 20 ft Threshold ft Heading 89
Runway 27 Length 4591 ft Width 150 ft
Elevation 25 ft Threshold ft Heading 269
Runway 15 Length 4743 ft width 150 ft
Elevation 18 ft Threshold ft Heading 149
Runway 33 Length 4743 ft Width 150 ft
Elevation 25 ft Threshold ft Heading 329
Runway 04 Length 6695 ft width 150 ft
Elevation 23 ft Threshold ft Heading 29
Runway 22 Length 6695 ft Width 150 ft
Elevation 26 ft Threshold ft Heading 209
Airport Frequencies
Type A/D Name FORT MYERS Frequency 126.8 MHZ
Type ASOS Name ASOS Frequency 135.675 MHZ
Type CLD Name CLNC DEL Frequency 127.05 MHZ
Type RDO Name ST PETERSB Frequency 122.025 MHZ
Type UNIC Name CTAF/UNICO Frequency 122.975 MHZ
Airport Navaids
Airport Weather Information & NOTAM
ADDS - METARS form results

(1603 UTC 24 September 2022)
Data provider http://aviationweather.gov/metar/data/
 
METAR text: KPGD 241553Z 08011KT 10SM FEW025 SCT030 BKN040 31/24 A3001 RMK AO2 SLP162 T03060239
Conditions at: KPGD (PUNTA GORDA , FL, US) observed 1553 UTC 24 September 2022
Temperature: 30.6°C (87°F)
Dewpoint: 23.9°C (75°F) [RH = 68%]
Pressure (altimeter): 30.01 inches Hg (1016.3 mb)
[Sea-level pressure: 1016.2 mb]
Winds: from the E (80 degrees) at 13 MPH (11 knots; 5.7 m/s)
Visibility: 10 or more miles (16+ km)
Ceiling: 4000 feet AGL
Clouds: few clouds at 2500 feet AGL
scattered clouds at 3000 feet AGL
broken clouds at 4000 feet AGL
Weather: no significant weather observed at this time

METAR text: KPGD 241549Z 08010KT 10SM SCT025 BKN034 BKN043 30/24 A3001 RMK AO2
Conditions at: KPGD (PUNTA GORDA , FL, US) observed 1549 UTC 24 September 2022
Temperature: 30.0°C (86°F)
Dewpoint: 24.0°C (75°F) [RH = 70%]
Pressure (altimeter): 30.01 inches Hg (1016.3 mb)
Winds: from the E (80 degrees) at 12 MPH (10 knots; 5.1 m/s)
Visibility: 10 or more miles (16+ km)
Ceiling: 3400 feet AGL
Clouds: scattered clouds at 2500 feet AGL
broken clouds at 3400 feet AGL
broken clouds at 4300 feet AGL
Weather: no significant weather observed at this time

METAR text: KPGD 241523Z 06011KT 10SM BKN024 30/24 A3001 RMK AO2 T03000244
Conditions at: KPGD (PUNTA GORDA , FL, US) observed 1523 UTC 24 September 2022
Temperature: 30.0°C (86°F)
Dewpoint: 24.4°C (76°F) [RH = 72%]
Pressure (altimeter): 30.01 inches Hg (1016.3 mb)
Winds: from the ENE (60 degrees) at 13 MPH (11 knots; 5.7 m/s)
Visibility: 10 or more miles (16+ km)
Ceiling: 2400 feet AGL
Clouds: broken clouds at 2400 feet AGL
Weather: no significant weather observed at this time

Forecast for: KPGD (PUNTA GORDA , FL, US)
Text: KPGD 241133Z 2412/2512 03007KT P6SM SCT090
Forecast period: 1200 to 1400 UTC 24 September 2022
Forecast type: FROM: standard forecast or significant change
Winds: from the NNE (30 degrees) at 8 MPH (7 knots; 3.6 m/s)
Visibility: 6 or more miles (10+ km)
Ceiling: at least 12,000 feet AGL
Clouds: scattered clouds at 9000 feet AGL
Weather: no significant weather forecast for this period
Text: FM241400 06009KT P6SM SCT035 SCT100
Forecast period: 1400 to 1900 UTC 24 September 2022
Forecast type: FROM: standard forecast or significant change
Winds: from the ENE (60 degrees) at 10 MPH (9 knots; 4.6 m/s)
Visibility: 6 or more miles (10+ km)
Ceiling: at least 12,000 feet AGL
Clouds: scattered clouds at 3500 feet AGL
scattered clouds at 10000 feet AGL
Weather: no significant weather forecast for this period
Text: FM241900 05010KT P6SM VCSH SCT050 BKN100
Forecast period: 1900 UTC 24 September 2022 to 0200 UTC 25 September 2022
Forecast type: FROM: standard forecast or significant change
Winds: from the NE (50 degrees) at 12 MPH (10 knots; 5.1 m/s)
Visibility: 6 or more miles (10+ km)
Ceiling: 10000 feet AGL
Clouds: scattered clouds at 5000 feet AGL
broken clouds at 10000 feet AGL
Weather: VCSH  (showers in vicinity)
Text: FM250200 06006KT P6SM FEW035 FEW250
Forecast period: 0200 to 1200 UTC 25 September 2022
Forecast type: FROM: standard forecast or significant change
Winds: from the ENE (60 degrees) at 7 MPH (6 knots; 3.1 m/s)
Visibility: 6 or more miles (10+ km)
Ceiling: at least 12,000 feet AGL
Clouds: few clouds at 3500 feet AGL
few clouds at 25000 feet AGL
Weather: no significant weather forecast for this period